Terminal Aerodrome Forecast
Issued by NWS Dallas/Fort Worth, TX

Home | Current Version | Previous Version | Text Only | Print | Product List | Glossary On
Versions: 1 2 3 4 5 6 7 8 9 10 11 12 13 14 15 16 17 18 19
000
FTUS44 KFWD 271300 AAA
TAFDFW
TAF AMD
KDFW 271306Z 2713/2818 34016KT P6SM OVC030
     FM271400 35016G26KT P6SM SCT030 OVC060
     FM272000 35015G25KT P6SM VCSH OVC050
      TEMPO 2721/2801 4SM SHRA OVC025
     FM280400 36013KT P6SM SCT080 BKN200=

USA.gov is the U.S. government's official web portal to all federal, state and local government web resources and services.